sensor_id;sensor_type;location;lat;lon;timestamp;P1;durP1;ratioP1;P2;durP2;ratioP2
27223;SDS011;14965;50.660;13.226;2023-10-13T00:00:19;17.63;;;9.25;;
27223;SDS011;14965;50.660;13.226;2023-10-13T00:02:45;16.08;;;9.93;;
27223;SDS011;14965;50.660;13.226;2023-10-13T00:05:13;19.80;;;10.75;;
27223;SDS011;14965;50.660;13.226;2023-10-13T00:07:39;16.35;;;9.85;;
27223;SDS011;14965;50.660;13.226;2023-10-13T00:10:05;23.80;;;11.07;;
27223;SDS011;14965;50.660;13.226;2023-10-13T00:12:31;16.50;;;10.05;;
27223;SDS011;14965;50.660;13.226;2023-10-13T00:14:57;19.55;;;10.38;;
27223;SDS011;14965;50.660;13.226;2023-10-13T00:17:23;16.60;;;10.75;;
27223;SDS011;14965;50.660;13.226;2023-10-13T00:19:49;21.48;;;10.57;;
27223;SDS011;14965;50.660;13.226;2023-10-13T00:22:17;17.65;;;10.23;;
27223;SDS011;14965;50.660;13.226;2023-10-13T00:24:44;15.10;;;10.27;;
27223;SDS011;14965;50.660;13.226;2023-10-13T00:27:11;19.67;;;10.45;;
27223;SDS011;14965;50.660;13.226;2023-10-13T00:29:38;14.90;;;9.95;;
27223;SDS011;14965;50.660;13.226;2023-10-13T00:32:04;21.52;;;10.50;;
27223;SDS011;14965;50.660;13.226;2023-10-13T00:34:30;16.20;;;10.65;;
27223;SDS011;14965;50.660;13.226;2023-10-13T00:36:56;16.88;;;10.32;;
27223;SDS011;14965;50.660;13.226;2023-10-13T00:39:23;19.80;;;10.07;;
27223;SDS011;14965;50.660;13.226;2023-10-13T00:41:49;21.60;;;10.23;;
27223;SDS011;14965;50.660;13.226;2023-10-13T00:44:15;20.33;;;10.93;;
27223;SDS011;14965;50.660;13.226;2023-10-13T00:46:41;15.70;;;10.75;;
27223;SDS011;14965;50.660;13.226;2023-10-13T00:49:10;18.23;;;10.50;;
27223;SDS011;14965;50.660;13.226;2023-10-13T00:51:37;17.08;;;10.68;;
27223;SDS011;14965;50.660;13.226;2023-10-13T00:54:04;23.88;;;11.43;;
27223;SDS011;14965;50.660;13.226;2023-10-13T00:56:32;17.88;;;10.55;;
27223;SDS011;14965;50.660;13.226;2023-10-13T00:58:58;19.25;;;10.30;;
27223;SDS011;14965;50.660;13.226;2023-10-13T01:01:25;18.80;;;10.20;;
27223;SDS011;14965;50.660;13.226;2023-10-13T01:03:52;16.70;;;9.45;;
27223;SDS011;14965;50.660;13.226;2023-10-13T01:06:19;15.05;;;10.02;;
27223;SDS011;14965;50.660;13.226;2023-10-13T01:08:45;18.15;;;10.40;;
27223;SDS011;14965;50.660;13.226;2023-10-13T01:11:12;15.63;;;9.65;;
27223;SDS011;14965;50.660;13.226;2023-10-13T01:13:40;21.05;;;10.48;;
27223;SDS011;14965;50.660;13.226;2023-10-13T01:16:06;19.35;;;9.82;;
27223;SDS011;14965;50.660;13.226;2023-10-13T01:18:31;16.52;;;10.13;;
27223;SDS011;14965;50.660;13.226;2023-10-13T01:20:58;17.77;;;10.00;;
27223;SDS011;14965;50.660;13.226;2023-10-13T01:23:26;16.92;;;10.32;;
27223;SDS011;14965;50.660;13.226;2023-10-13T01:25:52;20.27;;;9.35;;
27223;SDS011;14965;50.660;13.226;2023-10-13T01:28:18;19.98;;;10.68;;
27223;SDS011;14965;50.660;13.226;2023-10-13T01:30:43;14.43;;;9.05;;
27223;SDS011;14965;50.660;13.226;2023-10-13T01:33:10;19.05;;;9.73;;
27223;SDS011;14965;50.660;13.226;2023-10-13T01:35:36;17.05;;;9.15;;
27223;SDS011;14965;50.660;13.226;2023-10-13T01:38:02;18.27;;;9.30;;
27223;SDS011;14965;50.660;13.226;2023-10-13T01:40:30;17.20;;;9.93;;
27223;SDS011;14965;50.660;13.226;2023-10-13T01:42:56;16.98;;;9.23;;
27223;SDS011;14965;50.660;13.226;2023-10-13T01:45:22;18.20;;;9.65;;
27223;SDS011;14965;50.660;13.226;2023-10-13T01:47:48;18.08;;;10.40;;
27223;SDS011;14965;50.660;13.226;2023-10-13T01:50:14;16.85;;;8.85;;
27223;SDS011;14965;50.660;13.226;2023-10-13T01:52:40;16.27;;;8.70;;
27223;SDS011;14965;50.660;13.226;2023-10-13T01:55:06;18.98;;;8.85;;
27223;SDS011;14965;50.660;13.226;2023-10-13T01:57:35;14.53;;;8.77;;
27223;SDS011;14965;50.660;13.226;2023-10-13T02:00:01;16.65;;;9.13;;
27223;SDS011;14965;50.660;13.226;2023-10-13T02:02:28;18.05;;;9.10;;
27223;SDS011;14965;50.660;13.226;2023-10-13T02:04:54;19.67;;;9.75;;
27223;SDS011;14965;50.660;13.226;2023-10-13T02:07:20;15.07;;;8.05;;
27223;SDS011;14965;50.660;13.226;2023-10-13T02:09:46;16.05;;;8.55;;
27223;SDS011;14965;50.660;13.226;2023-10-13T02:12:12;16.63;;;7.75;;
27223;SDS011;14965;50.660;13.226;2023-10-13T02:14:40;14.25;;;8.32;;
27223;SDS011;14965;50.660;13.226;2023-10-13T02:17:06;13.20;;;8.10;;
27223;SDS011;14965;50.660;13.226;2023-10-13T02:19:32;15.32;;;7.07;;
27223;SDS011;14965;50.660;13.226;2023-10-13T02:21:57;12.52;;;7.60;;
27223;SDS011;14965;50.660;13.226;2023-10-13T02:24:23;15.57;;;7.80;;
27223;SDS011;14965;50.660;13.226;2023-10-13T02:26:50;10.77;;;7.18;;
27223;SDS011;14965;50.660;13.226;2023-10-13T02:29:15;16.85;;;7.63;;
27223;SDS011;14965;50.660;13.226;2023-10-13T02:31:43;12.88;;;6.72;;
27223;SDS011;14965;50.660;13.226;2023-10-13T02:34:09;12.40;;;7.55;;
27223;SDS011;14965;50.660;13.226;2023-10-13T02:36:35;12.25;;;6.97;;
27223;SDS011;14965;50.660;13.226;2023-10-13T02:39:03;14.85;;;7.00;;
27223;SDS011;14965;50.660;13.226;2023-10-13T02:41:30;14.35;;;6.80;;
27223;SDS011;14965;50.660;13.226;2023-10-13T02:43:56;15.80;;;7.20;;
27223;SDS011;14965;50.660;13.226;2023-10-13T02:46:22;12.85;;;7.72;;
27223;SDS011;14965;50.660;13.226;2023-10-13T02:48:50;14.98;;;7.10;;
27223;SDS011;14965;50.660;13.226;2023-10-13T02:51:16;14.55;;;6.80;;
27223;SDS011;14965;50.660;13.226;2023-10-13T02:53:42;12.35;;;7.20;;
27223;SDS011;14965;50.660;13.226;2023-10-13T02:56:09;12.20;;;6.68;;
27223;SDS011;14965;50.660;13.226;2023-10-13T02:58:35;11.27;;;6.45;;
27223;SDS011;14965;50.660;13.226;2023-10-13T03:01:01;13.40;;;6.85;;
27223;SDS011;14965;50.660;13.226;2023-10-13T03:03:27;14.85;;;7.10;;
27223;SDS011;14965;50.660;13.226;2023-10-13T03:05:54;13.32;;;7.18;;
27223;SDS011;14965;50.660;13.226;2023-10-13T03:08:24;12.60;;;6.40;;
27223;SDS011;14965;50.660;13.226;2023-10-13T03:10:50;13.25;;;6.88;;
27223;SDS011;14965;50.660;13.226;2023-10-13T03:13:16;12.35;;;6.68;;
27223;SDS011;14965;50.660;13.226;2023-10-13T03:15:42;13.82;;;6.93;;
27223;SDS011;14965;50.660;13.226;2023-10-13T03:18:08;10.50;;;7.18;;
27223;SDS011;14965;50.660;13.226;2023-10-13T03:20:37;11.93;;;6.22;;
27223;SDS011;14965;50.660;13.226;2023-10-13T03:23:05;9.38;;;6.35;;
27223;SDS011;14965;50.660;13.226;2023-10-13T03:25:31;11.13;;;6.07;;
27223;SDS011;14965;50.660;13.226;2023-10-13T03:27:58;11.63;;;6.78;;
27223;SDS011;14965;50.660;13.226;2023-10-13T03:30:24;12.88;;;6.53;;
27223;SDS011;14965;50.660;13.226;2023-10-13T03:32:50;12.00;;;6.55;;
27223;SDS011;14965;50.660;13.226;2023-10-13T03:35:16;12.95;;;7.10;;
27223;SDS011;14965;50.660;13.226;2023-10-13T03:37:42;12.77;;;6.90;;
27223;SDS011;14965;50.660;13.226;2023-10-13T03:40:10;14.32;;;6.68;;
27223;SDS011;14965;50.660;13.226;2023-10-13T03:42:37;11.05;;;6.88;;
27223;SDS011;14965;50.660;13.226;2023-10-13T03:45:04;14.50;;;7.40;;
27223;SDS011;14965;50.660;13.226;2023-10-13T03:47:30;12.05;;;7.07;;
27223;SDS011;14965;50.660;13.226;2023-10-13T03:49:56;12.23;;;7.25;;
27223;SDS011;14965;50.660;13.226;2023-10-13T03:52:22;13.95;;;7.40;;
27223;SDS011;14965;50.660;13.226;2023-10-13T03:54:48;15.32;;;7.53;;
27223;SDS011;14965;50.660;13.226;2023-10-13T03:57:16;15.38;;;6.90;;
27223;SDS011;14965;50.660;13.226;2023-10-13T03:59:42;12.07;;;6.68;;
27223;SDS011;14965;50.660;13.226;2023-10-13T04:02:07;14.95;;;6.93;;
27223;SDS011;14965;50.660;13.226;2023-10-13T04:04:33;12.70;;;7.35;;
27223;SDS011;14965;50.660;13.226;2023-10-13T04:07:00;11.93;;;6.60;;
27223;SDS011;14965;50.660;13.226;2023-10-13T04:09:26;14.20;;;7.50;;
27223;SDS011;14965;50.660;13.226;2023-10-13T04:11:52;12.75;;;7.60;;
27223;SDS011;14965;50.660;13.226;2023-10-13T04:14:19;14.75;;;8.13;;
27223;SDS011;14965;50.660;13.226;2023-10-13T04:16:45;15.77;;;7.47;;
27223;SDS011;14965;50.660;13.226;2023-10-13T04:19:11;14.63;;;7.40;;
27223;SDS011;14965;50.660;13.226;2023-10-13T04:21:37;15.77;;;6.70;;
27223;SDS011;14965;50.660;13.226;2023-10-13T04:24:03;12.00;;;6.55;;
27223;SDS011;14965;50.660;13.226;2023-10-13T04:26:30;13.55;;;6.55;;
27223;SDS011;14965;50.660;13.226;2023-10-13T04:28:56;12.88;;;6.80;;
27223;SDS011;14965;50.660;13.226;2023-10-13T04:31:24;10.82;;;6.25;;
27223;SDS011;14965;50.660;13.226;2023-10-13T04:33:50;14.13;;;6.68;;
27223;SDS011;14965;50.660;13.226;2023-10-13T04:36:16;12.18;;;5.90;;
27223;SDS011;14965;50.660;13.226;2023-10-13T04:38:43;11.48;;;5.18;;
27223;SDS011;14965;50.660;13.226;2023-10-13T04:41:09;11.18;;;5.75;;
27223;SDS011;14965;50.660;13.226;2023-10-13T04:43:35;10.27;;;5.43;;
27223;SDS011;14965;50.660;13.226;2023-10-13T04:46:01;7.80;;;5.43;;
27223;SDS011;14965;50.660;13.226;2023-10-13T04:48:28;8.82;;;5.13;;
27223;SDS011;14965;50.660;13.226;2023-10-13T04:50:59;9.65;;;4.68;;
27223;SDS011;14965;50.660;13.226;2023-10-13T04:53:26;7.32;;;4.47;;
27223;SDS011;14965;50.660;13.226;2023-10-13T04:55:52;7.22;;;4.72;;
27223;SDS011;14965;50.660;13.226;2023-10-13T04:58:18;6.85;;;4.45;;
27223;SDS011;14965;50.660;13.226;2023-10-13T05:00:44;6.95;;;4.35;;
27223;SDS011;14965;50.660;13.226;2023-10-13T05:03:10;6.70;;;4.30;;
27223;SDS011;14965;50.660;13.226;2023-10-13T05:05:38;7.00;;;3.70;;
27223;SDS011;14965;50.660;13.226;2023-10-13T05:08:09;5.50;;;3.55;;
27223;SDS011;14965;50.660;13.226;2023-10-13T05:10:35;6.22;;;3.97;;
27223;SDS011;14965;50.660;13.226;2023-10-13T05:13:02;6.15;;;3.30;;
27223;SDS011;14965;50.660;13.226;2023-10-13T05:15:28;5.05;;;3.00;;
27223;SDS011;14965;50.660;13.226;2023-10-13T05:17:54;6.20;;;3.17;;
27223;SDS011;14965;50.660;13.226;2023-10-13T05:20:20;5.38;;;3.25;;
27223;SDS011;14965;50.660;13.226;2023-10-13T05:22:48;4.03;;;3.13;;
27223;SDS011;14965;50.660;13.226;2023-10-13T05:25:14;7.35;;;3.25;;
27223;SDS011;14965;50.660;13.226;2023-10-13T05:27:40;6.43;;;3.75;;
27223;SDS011;14965;50.660;13.226;2023-10-13T05:30:06;6.90;;;3.33;;
27223;SDS011;14965;50.660;13.226;2023-10-13T05:32:33;3.40;;;3.10;;
27223;SDS011;14965;50.660;13.226;2023-10-13T05:34:59;5.07;;;2.92;;
27223;SDS011;14965;50.660;13.226;2023-10-13T05:37:25;5.90;;;3.10;;
27223;SDS011;14965;50.660;13.226;2023-10-13T05:39:52;4.72;;;3.10;;
27223;SDS011;14965;50.660;13.226;2023-10-13T05:42:18;3.78;;;2.78;;
27223;SDS011;14965;50.660;13.226;2023-10-13T05:44:44;3.50;;;2.90;;
27223;SDS011;14965;50.660;13.226;2023-10-13T05:47:11;4.30;;;3.33;;
27223;SDS011;14965;50.660;13.226;2023-10-13T05:49:36;4.55;;;3.00;;
27223;SDS011;14965;50.660;13.226;2023-10-13T05:52:02;7.55;;;3.05;;
27223;SDS011;14965;50.660;13.226;2023-10-13T05:54:29;3.78;;;3.13;;
27223;SDS011;14965;50.660;13.226;2023-10-13T05:56:56;3.20;;;2.50;;
27223;SDS011;14965;50.660;13.226;2023-10-13T05:59:22;4.10;;;2.85;;
27223;SDS011;14965;50.660;13.226;2023-10-13T06:01:48;6.00;;;2.70;;
27223;SDS011;14965;50.660;13.226;2023-10-13T06:04:14;7.75;;;3.15;;
27223;SDS011;14965;50.660;13.226;2023-10-13T06:06:40;9.00;;;3.10;;
27223;SDS011;14965;50.660;13.226;2023-10-13T06:09:06;5.85;;;2.75;;
27223;SDS011;14965;50.660;13.226;2023-10-13T06:11:32;2.85;;;2.47;;
27223;SDS011;14965;50.660;13.226;2023-10-13T06:13:59;4.20;;;2.85;;
27223;SDS011;14965;50.660;13.226;2023-10-13T06:16:25;5.43;;;3.40;;
27223;SDS011;14965;50.660;13.226;2023-10-13T06:18:51;4.35;;;2.70;;
27223;SDS011;14965;50.660;13.226;2023-10-13T06:21:18;5.75;;;3.30;;
27223;SDS011;14965;50.660;13.226;2023-10-13T06:23:45;6.75;;;3.38;;
27223;SDS011;14965;50.660;13.226;2023-10-13T06:26:11;6.00;;;3.08;;
27223;SDS011;14965;50.660;13.226;2023-10-13T06:28:37;5.63;;;3.60;;
27223;SDS011;14965;50.660;13.226;2023-10-13T06:31:05;7.07;;;3.20;;
27223;SDS011;14965;50.660;13.226;2023-10-13T06:33:31;3.78;;;3.38;;
27223;SDS011;14965;50.660;13.226;2023-10-13T06:35:57;6.45;;;3.33;;
27223;SDS011;14965;50.660;13.226;2023-10-13T06:38:23;6.20;;;3.63;;
27223;SDS011;14965;50.660;13.226;2023-10-13T06:40:49;5.57;;;3.50;;
27223;SDS011;14965;50.660;13.226;2023-10-13T06:43:15;5.95;;;3.65;;
27223;SDS011;14965;50.660;13.226;2023-10-13T06:45:42;6.03;;;3.65;;
27223;SDS011;14965;50.660;13.226;2023-10-13T06:48:10;5.43;;;3.80;;
27223;SDS011;14965;50.660;13.226;2023-10-13T06:50:36;8.10;;;3.50;;
27223;SDS011;14965;50.660;13.226;2023-10-13T06:53:02;6.70;;;4.05;;
27223;SDS011;14965;50.660;13.226;2023-10-13T06:55:28;6.07;;;3.60;;
27223;SDS011;14965;50.660;13.226;2023-10-13T06:57:54;8.07;;;4.00;;
27223;SDS011;14965;50.660;13.226;2023-10-13T07:00:21;5.78;;;3.70;;
27223;SDS011;14965;50.660;13.226;2023-10-13T07:02:46;7.38;;;3.85;;
27223;SDS011;14965;50.660;13.226;2023-10-13T07:05:14;5.55;;;4.05;;
27223;SDS011;14965;50.660;13.226;2023-10-13T07:07:40;6.38;;;3.75;;
27223;SDS011;14965;50.660;13.226;2023-10-13T07:10:07;7.80;;;4.40;;
27223;SDS011;14965;50.660;13.226;2023-10-13T07:12:34;7.43;;;4.13;;
27223;SDS011;14965;50.660;13.226;2023-10-13T07:15:00;7.60;;;3.92;;
27223;SDS011;14965;50.660;13.226;2023-10-13T07:17:26;5.38;;;4.07;;
27223;SDS011;14965;50.660;13.226;2023-10-13T07:19:52;8.02;;;4.30;;
27223;SDS011;14965;50.660;13.226;2023-10-13T07:22:22;9.48;;;4.78;;
27223;SDS011;14965;50.660;13.226;2023-10-13T07:27:15;12.68;;;4.85;;
27223;SDS011;14965;50.660;13.226;2023-10-13T07:29:42;9.75;;;4.50;;
27223;SDS011;14965;50.660;13.226;2023-10-13T07:32:07;9.82;;;4.57;;
27223;SDS011;14965;50.660;13.226;2023-10-13T07:34:34;7.20;;;4.30;;
27223;SDS011;14965;50.660;13.226;2023-10-13T07:37:00;8.00;;;4.57;;
27223;SDS011;14965;50.660;13.226;2023-10-13T07:39:28;9.55;;;4.78;;
27223;SDS011;14965;50.660;13.226;2023-10-13T07:44:21;5.75;;;3.97;;
27223;SDS011;14965;50.660;13.226;2023-10-13T07:46:47;6.57;;;4.20;;
27223;SDS011;14965;50.660;13.226;2023-10-13T07:49:13;10.57;;;4.80;;
27223;SDS011;14965;50.660;13.226;2023-10-13T07:51:39;9.50;;;4.18;;
27223;SDS011;14965;50.660;13.226;2023-10-13T07:54:05;8.75;;;4.57;;
27223;SDS011;14965;50.660;13.226;2023-10-13T07:56:32;8.40;;;3.97;;
27223;SDS011;14965;50.660;13.226;2023-10-13T07:58:59;7.30;;;4.40;;
27223;SDS011;14965;50.660;13.226;2023-10-13T08:01:25;6.90;;;4.05;;
27223;SDS011;14965;50.660;13.226;2023-10-13T08:03:51;6.43;;;3.90;;
27223;SDS011;14965;50.660;13.226;2023-10-13T08:06:17;6.57;;;3.88;;
27223;SDS011;14965;50.660;13.226;2023-10-13T08:08:43;6.63;;;3.60;;
27223;SDS011;14965;50.660;13.226;2023-10-13T08:11:11;6.88;;;3.80;;
27223;SDS011;14965;50.660;13.226;2023-10-13T08:13:40;7.82;;;3.60;;
27223;SDS011;14965;50.660;13.226;2023-10-13T08:16:06;8.95;;;4.25;;
27223;SDS011;14965;50.660;13.226;2023-10-13T08:18:32;7.18;;;4.20;;
27223;SDS011;14965;50.660;13.226;2023-10-13T08:20:58;6.80;;;3.90;;
27223;SDS011;14965;50.660;13.226;2023-10-13T08:25:53;7.80;;;4.20;;
27223;SDS011;14965;50.660;13.226;2023-10-13T08:28:19;8.65;;;4.30;;
27223;SDS011;14965;50.660;13.226;2023-10-13T08:30:46;6.55;;;4.30;;
27223;SDS011;14965;50.660;13.226;2023-10-13T08:33:12;7.40;;;4.50;;
27223;SDS011;14965;50.660;13.226;2023-10-13T08:35:38;10.15;;;4.60;;
27223;SDS011;14965;50.660;13.226;2023-10-13T08:38:05;8.10;;;4.30;;
27223;SDS011;14965;50.660;13.226;2023-10-13T08:40:31;8.70;;;4.28;;
27223;SDS011;14965;50.660;13.226;2023-10-13T08:42:57;10.30;;;4.47;;
27223;SDS011;14965;50.660;13.226;2023-10-13T08:45:28;7.53;;;4.38;;
27223;SDS011;14965;50.660;13.226;2023-10-13T08:47:57;9.20;;;4.80;;
27223;SDS011;14965;50.660;13.226;2023-10-13T08:50:24;10.32;;;4.68;;
27223;SDS011;14965;50.660;13.226;2023-10-13T08:52:51;10.13;;;4.50;;
27223;SDS011;14965;50.660;13.226;2023-10-13T08:55:19;9.35;;;5.20;;
27223;SDS011;14965;50.660;13.226;2023-10-13T08:57:45;12.98;;;5.38;;
27223;SDS011;14965;50.660;13.226;2023-10-13T09:00:12;10.43;;;4.90;;
27223;SDS011;14965;50.660;13.226;2023-10-13T09:02:38;16.65;;;4.97;;
27223;SDS011;14965;50.660;13.226;2023-10-13T09:05:06;11.57;;;5.07;;
27223;SDS011;14965;50.660;13.226;2023-10-13T09:07:37;11.82;;;5.10;;
27223;SDS011;14965;50.660;13.226;2023-10-13T09:10:10;10.85;;;5.65;;
27223;SDS011;14965;50.660;13.226;2023-10-13T09:12:53;19.35;;;5.88;;
27223;SDS011;14965;50.660;13.226;2023-10-13T09:15:28;14.45;;;5.70;;
27223;SDS011;14965;50.660;13.226;2023-10-13T09:17:55;17.50;;;5.95;;
27223;SDS011;14965;50.660;13.226;2023-10-13T09:20:29;16.25;;;6.18;;
27223;SDS011;14965;50.660;13.226;2023-10-13T09:22:57;13.93;;;6.05;;
27223;SDS011;14965;50.660;13.226;2023-10-13T09:25:23;14.20;;;5.80;;
27223;SDS011;14965;50.660;13.226;2023-10-13T09:27:49;15.52;;;5.72;;
27223;SDS011;14965;50.660;13.226;2023-10-13T09:30:15;14.02;;;6.25;;
27223;SDS011;14965;50.660;13.226;2023-10-13T09:32:41;16.15;;;6.57;;
27223;SDS011;14965;50.660;13.226;2023-10-13T09:35:07;18.00;;;6.50;;
27223;SDS011;14965;50.660;13.226;2023-10-13T09:37:41;16.05;;;6.15;;
27223;SDS011;14965;50.660;13.226;2023-10-13T09:40:09;12.57;;;5.75;;
27223;SDS011;14965;50.660;13.226;2023-10-13T09:42:36;15.18;;;5.70;;
27223;SDS011;14965;50.660;13.226;2023-10-13T09:45:02;9.75;;;5.60;;
27223;SDS011;14965;50.660;13.226;2023-10-13T09:47:28;13.88;;;5.68;;
27223;SDS011;14965;50.660;13.226;2023-10-13T09:49:58;17.38;;;6.10;;
27223;SDS011;14965;50.660;13.226;2023-10-13T09:52:25;15.50;;;5.57;;
27223;SDS011;14965;50.660;13.226;2023-10-13T09:57:49;10.32;;;5.93;;
27223;SDS011;14965;50.660;13.226;2023-10-13T10:00:23;11.02;;;5.32;;
27223;SDS011;14965;50.660;13.226;2023-10-13T10:02:57;13.07;;;6.07;;
27223;SDS011;14965;50.660;13.226;2023-10-13T10:05:24;14.43;;;5.53;;
27223;SDS011;14965;50.660;13.226;2023-10-13T10:07:54;16.15;;;5.65;;
27223;SDS011;14965;50.660;13.226;2023-10-13T10:10:22;14.50;;;5.70;;
27223;SDS011;14965;50.660;13.226;2023-10-13T10:12:54;16.85;;;5.82;;
27223;SDS011;14965;50.660;13.226;2023-10-13T10:15:27;15.93;;;5.75;;
27223;SDS011;14965;50.660;13.226;2023-10-13T10:17:58;17.90;;;5.78;;
27223;SDS011;14965;50.660;13.226;2023-10-13T10:20:30;15.00;;;5.93;;
27223;SDS011;14965;50.660;13.226;2023-10-13T10:22:58;19.75;;;6.03;;
27223;SDS011;14965;50.660;13.226;2023-10-13T10:25:30;19.98;;;6.63;;
27223;SDS011;14965;50.660;13.226;2023-10-13T10:27:57;21.90;;;6.10;;
27223;SDS011;14965;50.660;13.226;2023-10-13T10:30:25;18.07;;;6.40;;
27223;SDS011;14965;50.660;13.226;2023-10-13T10:32:54;21.35;;;6.40;;
27223;SDS011;14965;50.660;13.226;2023-10-13T10:35:22;19.33;;;6.45;;
27223;SDS011;14965;50.660;13.226;2023-10-13T10:37:49;17.95;;;7.85;;
27223;SDS011;14965;50.660;13.226;2023-10-13T10:40:16;21.25;;;6.60;;
27223;SDS011;14965;50.660;13.226;2023-10-13T10:42:44;20.20;;;5.72;;
27223;SDS011;14965;50.660;13.226;2023-10-13T10:45:16;17.13;;;5.45;;
27223;SDS011;14965;50.660;13.226;2023-10-13T10:47:47;18.73;;;5.75;;
27223;SDS011;14965;50.660;13.226;2023-10-13T10:50:13;14.63;;;5.15;;
27223;SDS011;14965;50.660;13.226;2023-10-13T10:52:50;14.75;;;5.32;;
27223;SDS011;14965;50.660;13.226;2023-10-13T10:55:19;18.67;;;5.68;;
27223;SDS011;14965;50.660;13.226;2023-10-13T10:57:47;14.48;;;5.28;;
27223;SDS011;14965;50.660;13.226;2023-10-13T11:00:23;20.38;;;6.03;;
27223;SDS011;14965;50.660;13.226;2023-10-13T11:02:53;22.20;;;5.57;;
27223;SDS011;14965;50.660;13.226;2023-10-13T11:05:19;15.43;;;5.75;;
27223;SDS011;14965;50.660;13.226;2023-10-13T11:07:45;15.80;;;5.35;;
27223;SDS011;14965;50.660;13.226;2023-10-13T11:10:12;16.20;;;5.70;;
27223;SDS011;14965;50.660;13.226;2023-10-13T11:12:39;19.15;;;5.20;;
27223;SDS011;14965;50.660;13.226;2023-10-13T11:15:07;21.30;;;5.97;;
27223;SDS011;14965;50.660;13.226;2023-10-13T11:17:34;13.85;;;5.75;;
27223;SDS011;14965;50.660;13.226;2023-10-13T11:20:07;18.83;;;5.90;;
27223;SDS011;14965;50.660;13.226;2023-10-13T11:22:36;19.50;;;6.07;;
27223;SDS011;14965;50.660;13.226;2023-10-13T11:25:05;16.40;;;5.65;;
27223;SDS011;14965;50.660;13.226;2023-10-13T11:27:32;18.65;;;6.10;;
27223;SDS011;14965;50.660;13.226;2023-10-13T11:30:01;16.52;;;5.70;;
27223;SDS011;14965;50.660;13.226;2023-10-13T11:32:29;17.77;;;5.50;;
27223;SDS011;14965;50.660;13.226;2023-10-13T11:34:55;17.33;;;5.72;;
27223;SDS011;14965;50.660;13.226;2023-10-13T11:37:21;18.75;;;5.78;;
27223;SDS011;14965;50.660;13.226;2023-10-13T11:39:47;19.23;;;5.35;;
27223;SDS011;14965;50.660;13.226;2023-10-13T11:42:13;15.88;;;5.53;;
27223;SDS011;14965;50.660;13.226;2023-10-13T11:44:39;19.08;;;6.10;;
27223;SDS011;14965;50.660;13.226;2023-10-13T11:47:05;17.67;;;6.18;;
27223;SDS011;14965;50.660;13.226;2023-10-13T11:49:32;13.80;;;5.22;;
27223;SDS011;14965;50.660;13.226;2023-10-13T11:51:58;15.80;;;5.97;;
27223;SDS011;14965;50.660;13.226;2023-10-13T11:54:24;20.40;;;5.72;;
27223;SDS011;14965;50.660;13.226;2023-10-13T11:56:50;12.95;;;5.63;;
27223;SDS011;14965;50.660;13.226;2023-10-13T11:59:17;14.45;;;5.57;;
27223;SDS011;14965;50.660;13.226;2023-10-13T12:01:43;13.48;;;5.50;;
27223;SDS011;14965;50.660;13.226;2023-10-13T12:04:09;14.82;;;6.15;;
27223;SDS011;14965;50.660;13.226;2023-10-13T12:06:37;15.55;;;5.68;;
27223;SDS011;14965;50.660;13.226;2023-10-13T12:09:03;14.40;;;4.95;;
27223;SDS011;14965;50.660;13.226;2023-10-13T12:13:57;14.27;;;5.68;;
27223;SDS011;14965;50.660;13.226;2023-10-13T12:16:23;16.23;;;5.97;;
27223;SDS011;14965;50.660;13.226;2023-10-13T12:18:49;13.05;;;5.07;;
27223;SDS011;14965;50.660;13.226;2023-10-13T12:21:18;12.60;;;5.32;;
27223;SDS011;14965;50.660;13.226;2023-10-13T12:23:45;12.52;;;5.53;;
27223;SDS011;14965;50.660;13.226;2023-10-13T12:26:14;14.32;;;5.95;;
27223;SDS011;14965;50.660;13.226;2023-10-13T12:28:40;14.10;;;5.85;;
27223;SDS011;14965;50.660;13.226;2023-10-13T12:31:06;15.48;;;5.82;;
27223;SDS011;14965;50.660;13.226;2023-10-13T12:33:32;20.10;;;5.55;;
27223;SDS011;14965;50.660;13.226;2023-10-13T12:35:58;17.85;;;5.90;;
27223;SDS011;14965;50.660;13.226;2023-10-13T12:38:26;15.02;;;5.50;;
27223;SDS011;14965;50.660;13.226;2023-10-13T12:40:53;15.35;;;6.03;;
27223;SDS011;14965;50.660;13.226;2023-10-13T12:43:19;12.98;;;5.32;;
27223;SDS011;14965;50.660;13.226;2023-10-13T12:45:46;14.75;;;5.80;;
27223;SDS011;14965;50.660;13.226;2023-10-13T12:48:13;15.85;;;5.60;;
27223;SDS011;14965;50.660;13.226;2023-10-13T12:50:39;15.52;;;5.68;;
27223;SDS011;14965;50.660;13.226;2023-10-13T12:53:05;12.98;;;5.47;;
27223;SDS011;14965;50.660;13.226;2023-10-13T12:55:31;18.88;;;5.68;;
27223;SDS011;14965;50.660;13.226;2023-10-13T12:57:58;15.82;;;5.28;;
27223;SDS011;14965;50.660;13.226;2023-10-13T13:00:24;20.02;;;6.15;;
27223;SDS011;14965;50.660;13.226;2023-10-13T13:02:50;12.25;;;5.78;;
27223;SDS011;14965;50.660;13.226;2023-10-13T13:05:16;17.63;;;6.05;;
27223;SDS011;14965;50.660;13.226;2023-10-13T13:07:42;17.08;;;5.90;;
27223;SDS011;14965;50.660;13.226;2023-10-13T13:10:09;16.58;;;5.70;;
27223;SDS011;14965;50.660;13.226;2023-10-13T13:12:35;14.77;;;5.25;;
27223;SDS011;14965;50.660;13.226;2023-10-13T13:15:02;15.60;;;5.15;;
27223;SDS011;14965;50.660;13.226;2023-10-13T13:17:29;16.17;;;5.18;;
27223;SDS011;14965;50.660;13.226;2023-10-13T13:19:55;15.73;;;5.22;;
27223;SDS011;14965;50.660;13.226;2023-10-13T13:22:22;14.73;;;5.28;;
27223;SDS011;14965;50.660;13.226;2023-10-13T13:24:48;14.07;;;5.43;;
27223;SDS011;14965;50.660;13.226;2023-10-13T13:27:15;18.55;;;5.00;;
27223;SDS011;14965;50.660;13.226;2023-10-13T13:29:41;12.25;;;5.20;;
27223;SDS011;14965;50.660;13.226;2023-10-13T13:32:09;13.18;;;5.45;;
27223;SDS011;14965;50.660;13.226;2023-10-13T13:34:35;11.40;;;5.15;;
27223;SDS011;14965;50.660;13.226;2023-10-13T13:37:01;14.40;;;5.10;;
27223;SDS011;14965;50.660;13.226;2023-10-13T13:39:27;14.18;;;5.35;;
27223;SDS011;14965;50.660;13.226;2023-10-13T13:41:53;12.02;;;4.78;;
27223;SDS011;14965;50.660;13.226;2023-10-13T13:44:20;15.85;;;4.97;;
27223;SDS011;14965;50.660;13.226;2023-10-13T13:46:46;13.05;;;5.22;;
27223;SDS011;14965;50.660;13.226;2023-10-13T13:49:13;14.82;;;5.28;;
27223;SDS011;14965;50.660;13.226;2023-10-13T13:51:39;18.30;;;5.65;;
27223;SDS011;14965;50.660;13.226;2023-10-13T13:54:05;13.18;;;5.32;;
27223;SDS011;14965;50.660;13.226;2023-10-13T13:56:31;14.82;;;5.47;;
27223;SDS011;14965;50.660;13.226;2023-10-13T13:58:57;13.40;;;5.30;;
27223;SDS011;14965;50.660;13.226;2023-10-13T14:01:23;14.07;;;5.20;;
27223;SDS011;14965;50.660;13.226;2023-10-13T14:03:49;9.05;;;4.88;;
27223;SDS011;14965;50.660;13.226;2023-10-13T14:06:17;16.50;;;5.32;;
27223;SDS011;14965;50.660;13.226;2023-10-13T14:08:45;12.30;;;4.90;;
27223;SDS011;14965;50.660;13.226;2023-10-13T14:11:11;13.55;;;5.05;;
27223;SDS011;14965;50.660;13.226;2023-10-13T14:13:37;12.00;;;4.85;;
27223;SDS011;14965;50.660;13.226;2023-10-13T14:16:03;16.40;;;4.93;;
27223;SDS011;14965;50.660;13.226;2023-10-13T14:18:29;18.55;;;5.80;;
27223;SDS011;14965;50.660;13.226;2023-10-13T14:20:55;13.95;;;4.60;;
27223;SDS011;14965;50.660;13.226;2023-10-13T14:23:22;10.57;;;4.90;;
27223;SDS011;14965;50.660;13.226;2023-10-13T14:25:48;13.88;;;5.03;;
27223;SDS011;14965;50.660;13.226;2023-10-13T14:28:15;14.70;;;4.90;;
27223;SDS011;14965;50.660;13.226;2023-10-13T14:30:41;16.40;;;5.00;;
27223;SDS011;14965;50.660;13.226;2023-10-13T14:33:07;17.50;;;5.45;;